Time,TemperatureF,DewpointF,PressureIn,WindDirection,WindDirectionDegrees,WindSpeedMPH,WindSpeedGustMPH,Humidity,HourlyPrecipIn,Conditions,Clouds,dailyrainin,SoftwareType,DateUTC
2013-06-15 00:01:00,74.6,63.3,29.78,East,80,4.0,4.0,68,0.00,CLR,CLR,0.00,WeatherDisplay:10.37,2013-06-15 05:01:00,
2013-06-15 00:06:00,75.0,64.1,29.78,ENE,76,3.0,3.0,69,0.00,CLR,CLR,0.00,WeatherDisplay:10.37,2013-06-15 05:06:00,
2013-06-15 00:11:00,75.1,64.6,29.78,East,83,3.0,3.0,70,0.00,CLR,CLR,0.00,WeatherDisplay:10.37,2013-06-15 05:11:00,
2013-06-15 00:16:00,75.2,65.6,29.78,SE,129,4.0,4.0,72,0.00,CLR,CLR,0.00,WeatherDisplay:10.37,2013-06-15 05:16:00,
2013-06-15 00:21:00,75.2,66.3,29.77,South,186,3.5,3.5,74,0.00,CLR,CLR,0.00,WeatherDisplay:10.37,2013-06-15 05:21:00,
2013-06-15 00:26:00,75.3,66.8,29.77,SSW,202,3.5,3.5,75,0.00,CLR,CLR,0.00,WeatherDisplay:10.37,2013-06-15 05:26:00,
2013-06-15 00:31:00,75.3,67.2,29.77,NNE,27,3.5,3.5,76,0.00,CLR,CLR,0.00,WeatherDisplay:10.37,2013-06-15 05:31:00,
2013-06-15 00:36:00,75.4,67.7,29.76,East,101,3.5,3.5,77,0.00,CLR,CLR,0.00,WeatherDisplay:10.37,2013-06-15 05:36:00,
2013-06-15 00:41:00,75.5,68.2,29.76,SSW,211,4.0,4.0,78,0.00,CLR,CLR,0.00,WeatherDisplay:10.37,2013-06-15 05:41:00,
2013-06-15 00:46:00,75.8,68.4,29.76,SSW,195,5.8,5.8,78,0.00,CLR,CLR,0.00,WeatherDisplay:10.37,2013-06-15 05:46:00,
2013-06-15 00:51:00,76.1,68.7,29.76,SW,234,2.3,2.3,78,0.00,CLR,CLR,0.00,WeatherDisplay:10.37,2013-06-15 05:51:00,
2013-06-15 00:56:00,76.3,68.9,29.75,SW,221,3.0,3.0,78,0.00,CLR,CLR,0.00,WeatherDisplay:10.37,2013-06-15 05:56:00,
2013-06-15 01:01:00,76.7,68.9,29.75,SSW,211,6.0,6.0,77,0.00,CLR,CLR,0.00,WeatherDisplay:10.37,2013-06-15 06:01:00,
2013-06-15 01:06:00,77.3,69.5,29.76,SSW,209,8.0,8.0,77,0.00,CLR,CLR,0.00,WeatherDisplay:10.37,2013-06-15 06:06:00,
2013-06-15 01:11:00,77.7,69.5,29.75,SW,218,4.6,4.6,76,0.00,CLR,CLR,0.00,WeatherDisplay:10.37,2013-06-15 06:11:00,
2013-06-15 01:16:00,77.9,69.3,29.75,SW,221,10.4,10.4,75,0.00,CLR,CLR,0.00,WeatherDisplay:10.37,2013-06-15 06:16:00,
2013-06-15 01:21:00,78.0,69.0,29.75,SW,226,3.5,3.5,74,0.00,CLR,CLR,0.00,WeatherDisplay:10.37,2013-06-15 06:21:00,
2013-06-15 01:26:00,78.0,69.0,29.75,SW,216,6.0,6.0,74,0.00,CLR,CLR,0.00,WeatherDisplay:10.37,2013-06-15 06:26:00,
2013-06-15 01:31:00,78.0,69.0,29.75,WSW,243,3.5,3.5,74,0.00,CLR,CLR,0.00,WeatherDisplay:10.37,2013-06-15 06:31:00,
2013-06-15 01:36:00,78.0,69.0,29.75,SW,223,5.8,5.8,74,0.00,CLR,CLR,0.00,WeatherDisplay:10.37,2013-06-15 06:36:00,
2013-06-15 01:41:00,78.0,69.4,29.75,SSW,199,5.0,5.0,75,0.00,CLR,CLR,0.00,WeatherDisplay:10.37,2013-06-15 06:41:00,
2013-06-15 01:46:00,77.8,69.2,29.75,SW,215,6.0,6.0,75,0.00,CLR,CLR,0.00,WeatherDisplay:10.37,2013-06-15 06:46:00,
2013-06-15 01:51:00,77.6,69.0,29.75,WSW,240,2.3,2.3,75,0.00,CLR,CLR,0.00,WeatherDisplay:10.37,2013-06-15 06:51:00,
2013-06-15 01:56:00,77.3,69.1,29.75,SW,221,6.0,6.0,76,0.00,CLR,CLR,0.00,WeatherDisplay:10.37,2013-06-15 06:56:00,
2013-06-15 02:02:00,77.0,69.2,29.75,SSW,207,2.3,2.3,77,0.00,CLR,CLR,0.00,WeatherDisplay:10.37,2013-06-15 07:02:00,
2013-06-15 02:07:00,76.8,69.0,29.75,WSW,241,5.0,5.0,77,0.00,CLR,CLR,0.00,WeatherDisplay:10.37,2013-06-15 07:07:00,
2013-06-15 02:12:00,76.6,69.2,29.75,SSW,197,5.0,5.0,78,0.00,CLR,CLR,0.00,WeatherDisplay:10.37,2013-06-15 07:12:00,
2013-06-15 02:17:00,76.5,69.5,29.74,SSW,201,6.0,6.0,79,0.00,CLR,CLR,0.00,WeatherDisplay:10.37,2013-06-15 07:17:00,
2013-06-15 02:22:00,76.4,69.4,29.74,SSE,167,3.5,3.5,79,0.00,CLR,CLR,0.00,WeatherDisplay:10.37,2013-06-15 07:22:00,
2013-06-15 02:27:00,76.3,69.3,29.74,SW,225,3.5,3.5,79,0.00,CLR,CLR,0.00,WeatherDisplay:10.37,2013-06-15 07:27:00,
2013-06-15 02:32:00,76.2,69.6,29.74,NE,49,4.0,4.0,80,0.00,CLR,CLR,0.00,WeatherDisplay:10.37,2013-06-15 07:32:00,
2013-06-15 02:37:00,76.1,69.5,29.74,NW,305,3.5,3.5,80,0.00,CLR,CLR,0.00,WeatherDisplay:10.37,2013-06-15 07:37:00,
2013-06-15 02:42:00,76.1,69.5,29.74,West,262,3.5,3.5,80,0.00,CLR,CLR,0.00,WeatherDisplay:10.37,2013-06-15 07:42:00,
2013-06-15 02:47:00,76.0,69.4,29.74,SW,225,5.0,5.0,80,0.00,CLR,CLR,0.00,WeatherDisplay:10.37,2013-06-15 07:47:00,
2013-06-15 02:52:00,76.0,69.4,29.73,SSW,207,4.0,4.0,80,0.00,CLR,CLR,0.00,WeatherDisplay:10.37,2013-06-15 07:52:00,
2013-06-15 02:57:00,76.0,69.4,29.73,SSW,211,4.0,4.0,80,0.00,CLR,CLR,0.00,WeatherDisplay:10.37,2013-06-15 07:57:00,
2013-06-15 03:02:00,76.0,69.4,29.73,West,266,2.3,2.3,80,0.00,CLR,CLR,0.00,WeatherDisplay:10.37,2013-06-15 08:02:00,
2013-06-15 03:07:00,76.0,69.4,29.73,South,171,2.3,2.3,80,0.00,CLR,CLR,0.00,WeatherDisplay:10.37,2013-06-15 08:07:00,
2013-06-15 03:12:00,76.0,69.0,29.74,SW,222,3.0,3.0,79,0.00,CLR,CLR,0.00,WeatherDisplay:10.37,2013-06-15 08:12:00,
2013-06-15 03:17:00,76.0,69.0,29.74,WSW,248,3.5,3.5,79,0.00,CLR,CLR,0.00,WeatherDisplay:10.37,2013-06-15 08:17:00,
2013-06-15 03:22:00,76.0,69.0,29.74,ESE,115,2.3,2.3,79,0.00,CLR,CLR,0.00,WeatherDisplay:10.37,2013-06-15 08:22:00,
2013-06-15 03:27:00,75.9,68.9,29.74,WSW,242,5.8,5.8,79,0.00,CLR,CLR,0.00,WeatherDisplay:10.37,2013-06-15 08:27:00,
2013-06-15 03:32:00,75.8,68.8,29.74,SW,215,1.2,1.2,79,0.00,CLR,CLR,0.00,WeatherDisplay:10.37,2013-06-15 08:32:00,
2013-06-15 03:37:00,75.7,68.7,29.75,SSW,192,2.0,2.0,79,0.00,CLR,CLR,0.00,WeatherDisplay:10.37,2013-06-15 08:37:00,
2013-06-15 03:42:00,75.6,68.6,29.74,SSW,195,1.2,1.2,79,0.00,CLR,CLR,0.00,WeatherDisplay:10.37,2013-06-15 08:42:00,
2013-06-15 03:47:00,75.5,68.5,29.74,West,263,1.2,0.0,79,0.00,CLR,CLR,0.00,WeatherDisplay:10.37,2013-06-15 08:47:00,
2013-06-15 03:52:00,75.4,68.8,29.73,ENE,67,4.6,4.6,80,0.00,CLR,CLR,0.00,WeatherDisplay:10.37,2013-06-15 08:52:00,
2013-06-15 03:57:00,75.3,68.7,29.73,South,171,2.3,2.3,80,0.00,CLR,CLR,0.00,WeatherDisplay:10.37,2013-06-15 08:57:00,
2013-06-15 04:02:00,75.2,68.6,29.74,South,171,1.2,1.2,80,0.00,CLR,CLR,0.00,WeatherDisplay:10.37,2013-06-15 09:02:00,
2013-06-15 04:07:00,75.1,68.5,29.74,South,186,2.3,2.3,80,0.00,CLR,CLR,0.00,WeatherDisplay:10.37,2013-06-15 09:07:00,
2013-06-15 04:12:00,75.0,68.8,29.73,SSW,202,2.3,2.3,81,0.00,CLR,CLR,0.00,WeatherDisplay:10.37,2013-06-15 09:12:00,
2013-06-15 04:17:00,74.9,68.7,29.74,SSE,163,1.2,1.2,81,0.00,CLR,CLR,0.00,WeatherDisplay:10.37,2013-06-15 09:17:00,
2013-06-15 04:22:00,74.7,68.5,29.73,SSE,163,0.0,0.0,81,0.00,CLR,CLR,0.00,WeatherDisplay:10.37,2013-06-15 09:22:00,
2013-06-15 04:27:00,74.5,68.6,29.73,SSE,163,0.0,0.0,82,0.00,CLR,CLR,0.00,WeatherDisplay:10.37,2013-06-15 09:27:00,
2013-06-15 04:32:00,74.4,68.5,29.73,ENE,77,0.0,0.0,82,0.00,CLR,CLR,0.00,WeatherDisplay:10.37,2013-06-15 09:32:00,
2013-06-15 04:37:00,74.3,68.4,29.73,ENE,77,1.2,1.2,82,0.00,CLR,CLR,0.00,WeatherDisplay:10.37,2013-06-15 09:37:00,
2013-06-15 04:42:00,74.1,68.3,29.73,ENE,77,0.0,0.0,82,0.00,CLR,CLR,0.00,WeatherDisplay:10.37,2013-06-15 09:42:00,
2013-06-15 04:47:00,74.0,68.2,29.72,SSW,200,3.5,3.5,82,0.00,CLR,CLR,0.00,WeatherDisplay:10.37,2013-06-15 09:47:00,
2013-06-15 04:52:00,74.0,68.2,29.73,WSW,246,1.2,0.0,82,0.00,CLR,CLR,0.00,WeatherDisplay:10.37,2013-06-15 09:52:00,
2013-06-15 04:57:00,74.0,68.2,29.73,West,263,0.0,0.0,82,0.00,CLR,CLR,0.00,WeatherDisplay:10.37,2013-06-15 09:57:00,
2013-06-15 05:02:00,73.9,68.4,29.73,West,263,0.0,0.0,83,0.00,CLR,CLR,0.00,WeatherDisplay:10.37,2013-06-15 10:02:00,
2013-06-15 05:07:00,73.8,68.3,29.74,West,263,1.2,1.2,83,0.00,CLR,CLR,0.00,WeatherDisplay:10.37,2013-06-15 10:07:00,
2013-06-15 05:12:00,73.6,68.1,29.74,WNW,289,1.2,1.2,83,0.00,CLR,CLR,0.00,WeatherDisplay:10.37,2013-06-15 10:12:00,
2013-06-15 05:17:00,73.3,68.2,29.74,WNW,289,0.0,0.0,84,0.00,CLR,CLR,0.00,WeatherDisplay:10.37,2013-06-15 10:17:00,
2013-06-15 05:22:00,72.9,68.1,29.74,WNW,289,1.2,0.0,85,0.00,CLR,CLR,0.00,WeatherDisplay:10.37,2013-06-15 10:22:00,
2013-06-15 05:27:00,72.6,68.2,29.75,WNW,289,0.0,0.0,86,0.00,CLR,CLR,0.00,WeatherDisplay:10.37,2013-06-15 10:27:00,
2013-06-15 05:32:00,72.3,68.2,29.75,NNE,12,1.2,1.2,87,0.00,CLR,CLR,0.00,WeatherDisplay:10.37,2013-06-15 10:32:00,
2013-06-15 05:37:00,72.2,68.1,29.75,NNE,12,0.0,0.0,87,0.00,CLR,CLR,0.00,WeatherDisplay:10.37,2013-06-15 10:37:00,
2013-06-15 05:42:00,71.9,68.2,29.75,West,273,0.0,0.0,88,0.00,CLR,CLR,0.00,WeatherDisplay:10.37,2013-06-15 10:42:00,
2013-06-15 05:47:00,71.8,68.1,29.75,West,273,0.0,0.0,88,0.00,CLR,CLR,0.00,WeatherDisplay:10.37,2013-06-15 10:47:00,
2013-06-15 05:52:00,71.7,68.0,29.75,NW,317,1.2,0.0,88,0.00,CLR,CLR,0.00,WeatherDisplay:10.37,2013-06-15 10:52:00,
2013-06-15 05:58:00,71.5,67.4,29.75,NW,317,0.0,0.0,87,0.00,CLR,CLR,0.00,WeatherDisplay:10.37,2013-06-15 10:58:00,
2013-06-15 06:03:00,71.3,67.2,29.75,NW,317,0.0,0.0,87,0.00,CLR,CLR,0.00,WeatherDisplay:10.37,2013-06-15 11:03:00,
2013-06-15 06:08:00,71.1,67.4,29.76,NW,317,1.0,0.0,88,0.00,CLR,CLR,0.00,WeatherDisplay:10.37,2013-06-15 11:08:00,
2013-06-15 06:13:00,70.8,66.7,29.76,NW,319,0.0,0.0,87,0.00,CLR,CLR,0.00,WeatherDisplay:10.37,2013-06-15 11:13:00,
2013-06-15 06:18:00,70.4,66.7,29.75,NW,319,0.0,0.0,88,0.00,CLR,CLR,0.00,WeatherDisplay:10.37,2013-06-15 11:18:00,
2013-06-15 06:23:00,70.3,66.9,29.76,NW,319,0.0,0.0,89,0.00,CLR,CLR,0.00,WeatherDisplay:10.37,2013-06-15 11:23:00,
2013-06-15 06:28:00,70.2,66.8,29.76,NW,319,0.0,0.0,89,0.00,CLR,CLR,0.00,WeatherDisplay:10.37,2013-06-15 11:28:00,
2013-06-15 06:33:00,70.1,66.7,29.76,NW,319,0.0,0.0,89,0.00,CLR,CLR,0.00,WeatherDisplay:10.37,2013-06-15 11:33:00,
2013-06-15 06:38:00,70.0,66.9,29.77,NW,319,0.0,0.0,90,0.00,CLR,CLR,0.00,WeatherDisplay:10.37,2013-06-15 11:38:00,
2013-06-15 06:43:00,70.0,66.9,29.77,NW,319,0.0,0.0,90,0.00,CLR,CLR,0.00,WeatherDisplay:10.37,2013-06-15 11:43:00,
2013-06-15 06:48:00,69.9,67.2,29.77,NW,319,0.0,0.0,91,0.00,CLR,CLR,0.00,WeatherDisplay:10.37,2013-06-15 11:48:00,
2013-06-15 06:53:00,69.9,67.2,29.78,NW,319,0.0,0.0,91,0.00,CLR,CLR,0.00,WeatherDisplay:10.37,2013-06-15 11:53:00,
2013-06-15 06:58:00,70.0,67.3,29.79,NW,319,0.0,0.0,91,0.00,CLR,CLR,0.00,WeatherDisplay:10.37,2013-06-15 11:58:00,
2013-06-15 07:03:00,70.0,67.3,29.78,NW,319,1.2,1.2,91,0.00,CLR,CLR,0.00,WeatherDisplay:10.37,2013-06-15 12:03:00,
2013-06-15 07:08:00,70.2,67.1,29.79,WSW,258,3.5,3.5,90,0.00,CLR,CLR,0.00,WeatherDisplay:10.37,2013-06-15 12:08:00,
2013-06-15 07:13:00,71.0,65.9,29.79,WSW,249,6.9,6.9,84,0.00,CLR,CLR,0.00,WeatherDisplay:10.37,2013-06-15 12:13:00,
2013-06-15 07:18:00,72.1,65.6,29.80,WSW,258,4.0,4.0,80,0.00,CLR,CLR,0.00,WeatherDisplay:10.37,2013-06-15 12:18:00,
2013-06-15 07:23:00,72.6,65.3,29.80,WSW,257,6.9,6.9,78,0.00,CLR,CLR,0.00,WeatherDisplay:10.37,2013-06-15 12:23:00,
2013-06-15 07:28:00,73.1,65.1,29.80,WSW,254,8.0,8.0,76,0.00,CLR,CLR,0.00,WeatherDisplay:10.37,2013-06-15 12:28:00,
2013-06-15 07:34:00,73.6,64.8,29.80,West,259,7.0,7.0,74,0.00,CLR,CLR,0.00,WeatherDisplay:10.37,2013-06-15 12:34:00,
2013-06-15 07:39:00,73.9,64.3,29.80,WSW,253,8.1,8.1,72,0.00,CLR,CLR,0.00,WeatherDisplay:10.37,2013-06-15 12:39:00,
2013-06-15 07:44:00,74.1,63.7,29.80,West,259,10.4,10.4,70,0.00,CLR,CLR,0.00,WeatherDisplay:10.37,2013-06-15 12:44:00,
2013-06-15 07:49:00,74.1,63.7,29.80,WSW,248,8.1,8.1,70,0.00,CLR,CLR,0.00,WeatherDisplay:10.37,2013-06-15 12:49:00,
2013-06-15 07:54:00,74.1,63.7,29.80,West,264,9.0,9.0,70,0.00,CLR,CLR,0.00,WeatherDisplay:10.37,2013-06-15 12:54:00,
2013-06-15 07:59:00,74.0,63.6,29.80,WSW,257,7.0,7.0,70,0.00,CLR,CLR,0.00,WeatherDisplay:10.37,2013-06-15 12:59:00,
2013-06-15 08:05:00,74.1,62.9,29.80,WSW,251,1.0,8.0,68,0.00,CLR,CLR,0.00,WeatherDisplay:10.37,2013-06-15 13:05:00,
2013-06-15 08:10:00,74.8,62.7,29.80,WSW,254,2.0,7.0,66,0.00,CLR,CLR,0.00,WeatherDisplay:10.37,2013-06-15 13:10:00,
2013-06-15 08:15:00,76.0,60.6,29.80,WSW,238,9.2,9.2,59,0.00,CLR,CLR,0.00,WeatherDisplay:10.37,2013-06-15 13:15:00,
2013-06-15 08:20:00,77.5,60.6,29.80,WSW,241,9.0,9.0,56,0.00,CLR,CLR,0.00,WeatherDisplay:10.37,2013-06-15 13:20:00,
2013-06-15 08:25:00,78.3,60.3,29.80,West,262,7.0,7.0,54,0.00,CLR,CLR,0.00,WeatherDisplay:10.37,2013-06-15 13:25:00,
2013-06-15 08:30:00,78.5,59.9,29.81,WSW,254,12.0,12.0,53,0.00,CLR,CLR,0.00,WeatherDisplay:10.37,2013-06-15 13:30:00,
2013-06-15 08:35:00,78.4,60.9,29.80,WSW,254,8.1,8.1,55,0.00,CLR,CLR,0.00,WeatherDisplay:10.37,2013-06-15 13:35:00,
2013-06-15 08:40:00,78.0,61.5,29.80,West,259,3.0,3.0,57,0.00,CLR,CLR,0.00,WeatherDisplay:10.37,2013-06-15 13:40:00,
2013-06-15 08:45:00,77.5,62.5,29.80,East,84,2.3,2.3,60,0.00,CLR,CLR,0.00,WeatherDisplay:10.37,2013-06-15 13:45:00,
2013-06-15 08:50:00,77.3,62.3,29.80,SSE,167,1.2,1.2,60,0.00,CLR,CLR,0.00,WeatherDisplay:10.37,2013-06-15 13:50:00,
2013-06-15 08:55:00,77.1,62.1,29.80,South,190,4.0,4.0,60,0.00,CLR,CLR,0.00,WeatherDisplay:10.37,2013-06-15 13:55:00,
2013-06-15 09:00:00,77.1,62.6,29.80,SSE,148,1.2,1.2,61,0.00,CLR,CLR,0.00,WeatherDisplay:10.37,2013-06-15 14:00:00,
2013-06-15 09:05:00,77.0,63.4,29.79,SSW,210,2.0,2.0,63,0.00,CLR,CLR,0.00,WeatherDisplay:10.37,2013-06-15 14:05:00,
2013-06-15 09:10:00,76.7,63.2,29.80,WSW,244,3.5,3.5,63,0.00,CLR,CLR,0.00,WeatherDisplay:10.37,2013-06-15 14:10:00,
2013-06-15 09:15:00,76.4,63.3,29.81,West,263,6.0,6.0,64,0.00,CLR,CLR,0.00,WeatherDisplay:10.37,2013-06-15 14:15:00,
2013-06-15 09:20:00,76.2,63.6,29.81,WSW,257,4.0,4.0,65,0.00,CLR,CLR,0.00,WeatherDisplay:10.37,2013-06-15 14:20:00,
2013-06-15 09:25:00,76.1,63.5,29.81,WSW,247,7.0,7.0,65,0.00,CLR,CLR,0.00,WeatherDisplay:10.37,2013-06-15 14:25:00,
2013-06-15 09:31:00,76.0,63.8,29.81,WSW,258,8.1,8.1,66,0.00,CLR,CLR,0.00,WeatherDisplay:10.37,2013-06-15 14:31:00,
2013-06-15 09:36:00,76.2,64.4,29.80,WSW,255,6.0,6.0,67,0.00,CLR,CLR,0.00,WeatherDisplay:10.37,2013-06-15 14:36:00,
2013-06-15 09:41:00,76.8,65.0,29.82,WSW,245,8.1,8.1,67,0.00,CLR,CLR,0.00,WeatherDisplay:10.37,2013-06-15 14:41:00,
2013-06-15 09:46:00,77.1,64.9,29.81,WSW,237,4.0,4.0,66,0.00,CLR,CLR,0.00,WeatherDisplay:10.37,2013-06-15 14:46:00,
2013-06-15 09:51:00,77.1,64.4,29.81,WNW,287,2.3,2.3,65,0.00,CLR,CLR,0.00,WeatherDisplay:10.37,2013-06-15 14:51:00,
2013-06-15 09:56:00,77.2,65.4,29.81,West,273,2.0,2.0,67,0.00,CLR,CLR,0.00,WeatherDisplay:10.37,2013-06-15 14:56:00,
2013-06-15 10:01:00,77.6,64.9,29.82,WSW,254,7.0,7.0,65,0.00,CLR,CLR,0.00,WeatherDisplay:10.37,2013-06-15 15:01:00,
2013-06-15 10:06:00,77.9,66.1,29.83,WSW,242,3.5,3.5,67,0.00,CLR,CLR,0.00,WeatherDisplay:10.37,2013-06-15 15:06:00,
2013-06-15 10:11:00,78.4,65.2,29.83,WSW,247,4.0,4.0,64,0.00,CLR,CLR,0.00,WeatherDisplay:10.37,2013-06-15 15:11:00,
2013-06-15 10:16:00,79.1,64.0,29.83,West,279,5.8,5.8,60,0.00,CLR,CLR,0.00,WeatherDisplay:10.37,2013-06-15 15:16:00,
2013-06-15 10:21:00,79.1,64.5,29.84,WNW,295,6.9,6.9,61,0.00,CLR,CLR,0.00,WeatherDisplay:10.37,2013-06-15 15:21:00,
2013-06-15 10:26:00,78.5,64.4,29.84,West,269,3.5,3.5,62,0.00,CLR,CLR,0.00,WeatherDisplay:10.37,2013-06-15 15:26:00,
2013-06-15 10:31:00,77.7,65.0,29.84,West,259,4.0,4.0,65,0.00,CLR,CLR,0.00,WeatherDisplay:10.37,2013-06-15 15:31:00,
2013-06-15 10:36:00,77.2,65.8,29.84,West,267,3.5,3.5,68,0.00,CLR,CLR,0.00,WeatherDisplay:10.37,2013-06-15 15:36:00,
2013-06-15 10:41:00,76.9,66.8,29.84,WNW,292,1.2,1.2,71,0.00,CLR,CLR,0.00,WeatherDisplay:10.37,2013-06-15 15:41:00,
2013-06-15 10:46:00,77.0,67.7,29.85,WNW,299,1.2,1.2,73,0.00,CLR,CLR,0.00,WeatherDisplay:10.37,2013-06-15 15:46:00,
2013-06-15 10:51:00,77.4,68.5,29.85,West,271,3.5,3.5,74,0.00,CLR,CLR,0.00,WeatherDisplay:10.37,2013-06-15 15:51:00,
2013-06-15 10:56:00,77.7,68.7,29.84,North,5,1.2,1.2,74,0.00,CLR,CLR,0.00,WeatherDisplay:10.37,2013-06-15 15:56:00,
2013-06-15 11:01:00,78.1,68.7,29.85,NW,306,2.3,2.3,73,0.00,CLR,CLR,0.00,WeatherDisplay:10.37,2013-06-15 16:01:00,
2013-06-15 11:06:00,78.3,69.3,29.85,West,279,2.3,2.3,74,0.00,CLR,CLR,0.00,WeatherDisplay:10.37,2013-06-15 16:06:00,
2013-06-15 11:11:00,78.7,68.5,29.85,WNW,303,1.2,1.2,71,0.00,CLR,CLR,0.00,WeatherDisplay:10.37,2013-06-15 16:11:00,
2013-06-15 11:16:00,79.1,69.3,29.86,NW,305,2.3,2.3,72,0.00,CLR,CLR,0.00,WeatherDisplay:10.37,2013-06-15 16:16:00,
2013-06-15 11:21:00,78.9,69.1,29.85,WSW,242,0.0,0.0,72,0.00,CLR,CLR,0.00,WeatherDisplay:10.37,2013-06-15 16:21:00,
2013-06-15 11:26:00,78.9,69.5,29.85,SSW,206,1.2,1.2,73,0.00,CLR,CLR,0.00,WeatherDisplay:10.37,2013-06-15 16:26:00,
2013-06-15 11:31:00,79.2,69.4,29.84,NNW,329,1.2,1.2,72,0.00,CLR,CLR,0.00,WeatherDisplay:10.37,2013-06-15 16:31:00,
2013-06-15 11:36:00,79.7,69.5,29.85,NNW,335,2.0,2.0,71,0.00,CLR,CLR,0.00,WeatherDisplay:10.37,2013-06-15 16:36:00,
2013-06-15 11:41:00,79.8,68.7,29.85,West,261,3.0,3.0,69,0.00,CLR,CLR,0.00,WeatherDisplay:10.37,2013-06-15 16:41:00,
2013-06-15 11:46:00,79.6,69.0,29.85,NNW,340,0.0,0.0,70,0.00,CLR,CLR,0.00,WeatherDisplay:10.37,2013-06-15 16:46:00,
2013-06-15 11:51:00,79.8,68.7,29.85,NNW,344,1.2,0.0,69,0.00,CLR,CLR,0.00,WeatherDisplay:10.37,2013-06-15 16:51:00,
2013-06-15 11:56:00,80.0,68.9,29.85,NNW,344,0.0,0.0,69,0.00,CLR,CLR,0.00,WeatherDisplay:10.37,2013-06-15 16:56:00,
2013-06-15 12:01:00,80.1,69.0,29.85,NNW,344,0.0,0.0,69,0.00,CLR,CLR,0.00,WeatherDisplay:10.37,2013-06-15 17:01:00,
2013-06-15 12:06:00,79.6,69.4,29.85,WNW,290,2.3,2.3,71,0.00,CLR,CLR,0.00,WeatherDisplay:10.37,2013-06-15 17:06:00,
2013-06-15 12:11:00,79.2,69.0,29.85,WNW,290,1.0,0.0,71,0.00,CLR,CLR,0.00,WeatherDisplay:10.37,2013-06-15 17:11:00,
2013-06-15 12:16:00,78.7,68.9,29.85,West,270,2.0,2.0,72,0.00,CLR,CLR,0.00,WeatherDisplay:10.37,2013-06-15 17:16:00,
2013-06-15 12:21:00,78.2,68.0,29.85,West,269,1.2,0.0,71,0.00,CLR,CLR,0.00,WeatherDisplay:10.37,2013-06-15 17:21:00,
2013-06-15 12:26:00,78.1,69.1,29.85,West,269,0.0,0.0,74,0.00,CLR,CLR,0.00,WeatherDisplay:10.37,2013-06-15 17:26:00,
2013-06-15 12:31:00,78.0,69.0,29.85,West,269,2.3,2.3,74,0.00,CLR,CLR,0.00,WeatherDisplay:10.37,2013-06-15 17:31:00,
2013-06-15 12:36:00,77.8,68.8,29.85,WSW,252,2.3,2.3,74,0.00,CLR,CLR,0.00,WeatherDisplay:10.37,2013-06-15 17:36:00,
2013-06-15 12:41:00,77.6,69.4,29.86,West,259,3.5,3.5,76,0.00,CLR,CLR,0.00,WeatherDisplay:10.37,2013-06-15 17:41:00,
2013-06-15 12:47:00,77.2,68.7,29.86,WSW,255,3.0,3.0,75,0.00,CLR,CLR,0.00,WeatherDisplay:10.37,2013-06-15 17:47:00,
2013-06-15 12:52:00,77.0,68.9,29.86,WSW,255,0.0,0.0,76,0.00,CLR,CLR,0.00,WeatherDisplay:10.37,2013-06-15 17:52:00,
2013-06-15 12:57:00,76.9,68.4,29.86,WSW,255,3.5,3.5,75,0.00,CLR,CLR,0.00,WeatherDisplay:10.37,2013-06-15 17:57:00,
2013-06-15 13:02:00,76.8,69.0,29.86,WSW,255,0.0,0.0,77,0.00,CLR,CLR,0.00,WeatherDisplay:10.37,2013-06-15 18:02:00,
2013-06-15 13:07:00,76.8,69.0,29.87,WSW,255,0.0,0.0,77,0.00,CLR,CLR,0.00,WeatherDisplay:10.37,2013-06-15 18:07:00,
2013-06-15 13:12:00,76.7,68.9,29.87,WSW,255,2.0,2.0,77,0.00,CLR,CLR,0.00,WeatherDisplay:10.37,2013-06-15 18:12:00,
2013-06-15 13:17:00,76.6,68.8,29.88,WSW,255,3.5,3.5,77,0.00,CLR,CLR,0.00,WeatherDisplay:10.37,2013-06-15 18:17:00,
2013-06-15 13:22:00,76.7,69.3,29.88,SW,235,1.2,0.0,78,0.00,CLR,CLR,0.00,WeatherDisplay:10.37,2013-06-15 18:22:00,
2013-06-15 13:27:00,76.8,69.0,29.88,West,271,3.5,3.5,77,0.00,CLR,CLR,0.00,WeatherDisplay:10.37,2013-06-15 18:27:00,
2013-06-15 13:33:00,76.9,69.1,29.88,WSW,250,7.0,7.0,77,0.00,CLR,CLR,0.00,WeatherDisplay:10.37,2013-06-15 18:33:00,
2013-06-15 13:38:00,77.0,68.9,29.88,West,266,8.1,8.1,76,0.00,CLR,CLR,0.00,WeatherDisplay:10.37,2013-06-15 18:38:00,
2013-06-15 13:43:00,77.1,65.7,29.89,WSW,255,12.0,12.0,68,0.00,CLR,CLR,0.00,WeatherDisplay:10.37,2013-06-15 18:43:00,
2013-06-15 13:48:00,76.7,65.3,29.89,WSW,257,9.2,9.2,68,0.00,CLR,CLR,0.00,WeatherDisplay:10.37,2013-06-15 18:48:00,
2013-06-15 13:53:00,75.9,65.0,29.88,NW,311,4.0,4.0,69,0.00,CLR,CLR,0.00,WeatherDisplay:10.37,2013-06-15 18:53:00,
2013-06-15 13:58:00,75.7,64.8,29.88,SW,234,4.0,4.0,69,0.00,CLR,CLR,0.00,WeatherDisplay:10.37,2013-06-15 18:58:00,
2013-06-15 14:03:00,75.7,64.8,29.88,SSW,198,10.4,10.4,69,0.00,CLR,CLR,0.00,WeatherDisplay:10.37,2013-06-15 19:03:00,
2013-06-15 14:08:00,75.8,65.3,29.86,SSE,161,1.2,1.2,70,0.00,CLR,CLR,0.00,WeatherDisplay:10.37,2013-06-15 19:08:00,
2013-06-15 14:14:00,75.9,63.7,29.86,SSE,160,9.2,9.2,66,0.00,CLR,CLR,0.00,WeatherDisplay:10.37,2013-06-15 19:14:00,
2013-06-15 14:19:00,76.2,63.6,29.85,WSW,257,4.6,4.6,65,0.00,CLR,CLR,0.00,WeatherDisplay:10.37,2013-06-15 19:19:00,
2013-06-15 14:24:00,76.4,63.8,29.85,ESE,121,2.3,2.3,65,0.00,CLR,CLR,0.00,WeatherDisplay:10.37,2013-06-15 19:24:00,
2013-06-15 14:29:00,76.4,64.2,29.85,SSW,211,5.0,5.0,66,0.00,CLR,CLR,0.00,WeatherDisplay:10.37,2013-06-15 19:29:00,
2013-06-15 14:34:00,76.1,63.0,29.85,South,171,3.5,3.5,64,0.00,CLR,CLR,0.00,WeatherDisplay:10.37,2013-06-15 19:34:00,
2013-06-15 14:39:00,75.8,63.2,29.84,ESE,113,2.3,2.3,65,0.00,CLR,CLR,0.00,WeatherDisplay:10.37,2013-06-15 19:39:00,
2013-06-15 14:44:00,75.6,63.9,29.84,SSW,207,2.3,2.3,67,0.00,CLR,CLR,0.00,WeatherDisplay:10.37,2013-06-15 19:44:00,
2013-06-15 14:49:00,75.6,62.6,29.83,SSE,167,3.5,3.5,64,0.00,CLR,CLR,0.00,WeatherDisplay:10.37,2013-06-15 19:49:00,
2013-06-15 14:54:00,75.7,63.1,29.83,SW,214,4.0,4.0,65,0.00,CLR,CLR,0.00,WeatherDisplay:10.37,2013-06-15 19:54:00,
2013-06-15 14:59:00,75.9,63.3,29.83,SSE,158,5.0,5.0,65,0.00,CLR,CLR,0.00,WeatherDisplay:10.37,2013-06-15 19:59:00,
2013-06-15 15:04:00,76.5,63.9,29.82,SSW,207,4.6,4.6,65,0.00,CLR,CLR,0.00,WeatherDisplay:10.37,2013-06-15 20:04:00,
2013-06-15 15:09:00,77.6,64.9,29.82,SW,223,5.0,5.0,65,0.00,CLR,CLR,0.00,WeatherDisplay:10.37,2013-06-15 20:09:00,
2013-06-15 15:14:00,78.4,65.2,29.81,NNE,18,2.0,2.0,64,0.00,CLR,CLR,0.00,WeatherDisplay:10.37,2013-06-15 20:14:00,
2013-06-15 15:19:00,79.1,65.4,29.81,SSW,205,3.5,3.5,63,0.00,CLR,CLR,0.00,WeatherDisplay:10.37,2013-06-15 20:19:00,
2013-06-15 15:24:00,79.9,66.6,29.80,East,92,1.2,1.2,64,0.00,CLR,CLR,0.00,WeatherDisplay:10.37,2013-06-15 20:24:00,
2013-06-15 15:29:00,80.7,65.5,29.80,South,170,3.5,3.5,60,0.00,CLR,CLR,0.00,WeatherDisplay:10.37,2013-06-15 20:29:00,
2013-06-15 15:35:00,81.1,66.4,29.80,South,174,1.0,4.0,61,0.00,CLR,CLR,0.00,WeatherDisplay:10.37,2013-06-15 20:35:00,
2013-06-15 15:40:00,81.0,65.9,29.79,SW,233,3.0,5.0,60,0.00,CLR,CLR,0.00,WeatherDisplay:10.37,2013-06-15 20:40:00,
2013-06-15 15:45:00,80.5,66.3,29.79,WSW,253,1.0,6.0,62,0.00,CLR,CLR,0.00,WeatherDisplay:10.37,2013-06-15 20:45:00,
2013-06-15 15:50:00,80.7,66.5,29.79,WSW,257,3.5,3.5,62,0.00,CLR,CLR,0.00,WeatherDisplay:10.37,2013-06-15 20:50:00,
2013-06-15 15:55:00,80.8,66.1,29.79,WSW,243,4.0,4.0,61,0.00,CLR,CLR,0.00,WeatherDisplay:10.37,2013-06-15 20:55:00,
2013-06-15 16:00:00,80.7,66.0,29.79,SW,235,8.0,8.0,61,0.00,CLR,CLR,0.00,WeatherDisplay:10.37,2013-06-15 21:00:00,
2013-06-15 16:05:00,80.6,66.8,29.78,WSW,250,8.1,8.1,63,0.00,CLR,CLR,0.00,WeatherDisplay:10.37,2013-06-15 21:05:00,
2013-06-15 16:10:00,80.9,66.2,29.78,East,84,2.0,2.0,61,0.00,CLR,CLR,0.00,WeatherDisplay:10.37,2013-06-15 21:10:00,
2013-06-15 16:15:00,81.5,66.3,29.78,SSE,166,3.5,3.5,60,0.00,CLR,CLR,0.00,WeatherDisplay:10.37,2013-06-15 21:15:00,
2013-06-15 16:20:00,81.8,67.0,29.79,West,270,7.0,7.0,61,0.00,CLR,CLR,0.00,WeatherDisplay:10.37,2013-06-15 21:20:00,
2013-06-15 16:25:00,81.5,67.7,29.78,West,262,7.0,7.0,63,0.00,CLR,CLR,0.00,WeatherDisplay:10.37,2013-06-15 21:25:00,
2013-06-15 16:30:00,81.6,66.8,29.78,West,259,3.5,3.5,61,0.00,CLR,CLR,0.00,WeatherDisplay:10.37,2013-06-15 21:30:00,
2013-06-15 16:35:00,81.5,66.8,29.78,SW,236,7.0,7.0,61,0.00,CLR,CLR,0.00,WeatherDisplay:10.37,2013-06-15 21:35:00,
2013-06-15 16:40:00,80.9,65.7,29.78,WSW,256,7.0,7.0,60,0.00,CLR,CLR,0.00,WeatherDisplay:10.37,2013-06-15 21:40:00,
2013-06-15 16:45:00,80.5,66.7,29.78,West,269,8.0,8.0,63,0.00,CLR,CLR,0.00,WeatherDisplay:10.37,2013-06-15 21:45:00,
2013-06-15 16:50:00,80.5,66.3,29.78,West,259,8.1,8.1,62,0.00,CLR,CLR,0.00,WeatherDisplay:10.37,2013-06-15 21:50:00,
2013-06-15 16:55:00,80.7,66.9,29.78,South,189,7.0,7.0,63,0.00,CLR,CLR,0.00,WeatherDisplay:10.37,2013-06-15 21:55:00,
2013-06-15 17:00:00,80.8,67.0,29.79,SW,236,6.9,6.9,63,0.00,CLR,CLR,0.00,WeatherDisplay:10.37,2013-06-15 22:00:00,
2013-06-15 17:05:00,81.0,67.2,29.79,SSW,198,3.5,3.5,63,0.00,CLR,CLR,0.00,WeatherDisplay:10.37,2013-06-15 22:05:00,
2013-06-15 17:10:00,80.7,66.0,29.79,WSW,245,10.0,10.0,61,0.00,CLR,CLR,0.00,WeatherDisplay:10.37,2013-06-15 22:10:00,
2013-06-15 17:15:00,80.2,66.5,29.79,West,268,9.2,9.2,63,0.00,CLR,CLR,0.00,WeatherDisplay:10.37,2013-06-15 22:15:00,
2013-06-15 17:20:00,79.8,66.5,29.80,WSW,250,7.0,7.0,64,0.00,CLR,CLR,0.00,WeatherDisplay:10.37,2013-06-15 22:20:00,
2013-06-15 17:25:00,79.6,66.8,29.80,WSW,255,9.0,9.0,65,0.00,CLR,CLR,0.00,WeatherDisplay:10.37,2013-06-15 22:25:00,
2013-06-15 17:30:00,79.4,67.5,29.79,WSW,254,10.0,10.0,67,0.00,CLR,CLR,0.00,WeatherDisplay:10.37,2013-06-15 22:30:00,
2013-06-15 17:35:00,79.6,67.7,29.80,SE,142,3.5,3.5,67,0.00,CLR,CLR,0.00,WeatherDisplay:10.37,2013-06-15 22:35:00,
2013-06-15 17:40:00,79.9,68.0,29.79,SSE,157,3.5,3.5,67,0.00,CLR,CLR,0.00,WeatherDisplay:10.37,2013-06-15 22:40:00,
2013-06-15 17:45:00,80.2,68.2,29.79,SW,229,6.9,6.9,67,0.00,CLR,CLR,0.00,WeatherDisplay:10.37,2013-06-15 22:45:00,
2013-06-15 17:50:00,80.3,67.5,29.80,WSW,250,8.1,8.1,65,0.00,CLR,CLR,0.00,WeatherDisplay:10.37,2013-06-15 22:50:00,
2013-06-15 17:55:00,79.9,67.5,29.79,West,263,8.1,8.1,66,0.00,CLR,CLR,0.00,WeatherDisplay:10.37,2013-06-15 22:55:00,
2013-06-15 18:00:00,79.7,68.2,29.79,SSW,209,1.2,1.2,68,0.00,CLR,CLR,0.00,WeatherDisplay:10.37,2013-06-15 23:00:00,
2013-06-15 18:05:00,79.7,68.2,29.79,SSW,196,3.5,3.5,68,0.00,CLR,CLR,0.00,WeatherDisplay:10.37,2013-06-15 23:05:00,
2013-06-15 18:10:00,79.9,68.0,29.79,SE,133,3.5,3.5,67,0.00,CLR,CLR,0.00,WeatherDisplay:10.37,2013-06-15 23:10:00,
2013-06-15 18:15:00,80.2,68.2,29.79,West,267,7.0,7.0,67,0.00,CLR,CLR,0.00,WeatherDisplay:10.37,2013-06-15 23:15:00,
2013-06-15 18:20:00,80.2,68.2,29.79,West,266,9.2,9.2,67,0.00,CLR,CLR,0.00,WeatherDisplay:10.37,2013-06-15 23:20:00,
2013-06-15 18:25:00,80.0,68.5,29.79,West,259,4.0,4.0,68,0.00,CLR,CLR,0.00,WeatherDisplay:10.37,2013-06-15 23:25:00,
2013-06-15 18:30:00,79.6,67.7,29.79,West,265,4.0,4.0,67,0.00,CLR,CLR,0.00,WeatherDisplay:10.37,2013-06-15 23:30:00,
2013-06-15 18:35:00,79.4,67.9,29.79,SSE,161,2.3,2.3,68,0.00,CLR,CLR,0.00,WeatherDisplay:10.37,2013-06-15 23:35:00,
2013-06-15 18:40:00,79.4,68.3,29.79,West,263,3.5,3.5,69,0.00,CLR,CLR,0.00,WeatherDisplay:10.37,2013-06-15 23:40:00,
2013-06-15 18:45:00,79.2,68.1,29.79,WSW,245,2.3,2.3,69,0.00,CLR,CLR,0.00,WeatherDisplay:10.37,2013-06-15 23:45:00,
2013-06-15 18:50:00,78.9,67.9,29.80,WSW,240,2.3,2.3,69,0.00,CLR,CLR,0.00,WeatherDisplay:10.37,2013-06-15 23:50:00,
2013-06-15 18:55:00,78.7,68.1,29.80,WSW,255,3.5,3.5,70,0.00,CLR,CLR,0.00,WeatherDisplay:10.37,2013-06-15 23:55:00,
2013-06-15 19:00:00,78.8,68.6,29.80,WSW,248,4.0,4.0,71,0.00,CLR,CLR,0.00,WeatherDisplay:10.37,2013-06-16 00:00:00,
2013-06-15 19:05:00,78.7,68.5,29.80,SW,217,2.3,2.3,71,0.00,CLR,CLR,0.00,WeatherDisplay:10.37,2013-06-16 00:05:00,
2013-06-15 19:10:00,78.5,67.9,29.80,South,177,2.3,2.3,70,0.00,CLR,CLR,0.00,WeatherDisplay:10.37,2013-06-16 00:10:00,
2013-06-15 19:15:00,78.4,68.2,29.80,SE,142,2.3,2.3,71,0.00,CLR,CLR,0.00,WeatherDisplay:10.37,2013-06-16 00:15:00,
2013-06-15 19:20:00,78.2,68.0,29.80,SE,137,4.0,4.0,71,0.00,CLR,CLR,0.00,WeatherDisplay:10.37,2013-06-16 00:20:00,
2013-06-15 19:25:00,78.0,68.2,29.80,South,182,1.2,1.2,72,0.00,CLR,CLR,0.00,WeatherDisplay:10.37,2013-06-16 00:25:00,
2013-06-15 19:30:00,77.8,68.0,29.80,SSW,195,3.5,3.5,72,0.00,CLR,CLR,0.00,WeatherDisplay:10.37,2013-06-16 00:30:00,
2013-06-15 19:35:00,77.7,68.0,29.80,SSW,206,3.0,3.0,72,0.00,CLR,CLR,0.00,WeatherDisplay:10.37,2013-06-16 00:35:00,
2013-06-15 19:40:00,77.6,68.3,29.80,SW,221,4.0,4.0,73,0.00,CLR,CLR,0.00,WeatherDisplay:10.37,2013-06-16 00:40:00,
2013-06-15 19:45:00,77.5,68.2,29.81,SW,221,3.5,3.5,73,0.00,CLR,CLR,0.00,WeatherDisplay:10.37,2013-06-16 00:45:00,
2013-06-15 19:50:00,77.5,68.6,29.81,West,259,2.3,2.3,74,0.00,CLR,CLR,0.00,WeatherDisplay:10.37,2013-06-16 00:50:00,
2013-06-15 19:55:00,77.4,68.5,29.81,South,174,1.2,1.2,74,0.00,CLR,CLR,0.00,WeatherDisplay:10.37,2013-06-16 00:55:00,
2013-06-15 20:00:00,77.2,68.3,29.81,SSW,194,4.0,4.0,74,0.00,CLR,CLR,0.00,WeatherDisplay:10.37,2013-06-16 01:00:00,
2013-06-15 20:05:00,76.9,68.4,29.81,SE,138,5.0,5.0,75,0.00,CLR,CLR,0.00,WeatherDisplay:10.37,2013-06-16 01:05:00,
2013-06-15 20:10:00,76.7,68.2,29.81,SSW,208,2.3,2.3,75,0.00,CLR,CLR,0.00,WeatherDisplay:10.37,2013-06-16 01:10:00,
2013-06-15 20:15:00,76.4,68.3,29.82,SW,219,5.0,5.0,76,0.00,CLR,CLR,0.00,WeatherDisplay:10.37,2013-06-16 01:15:00,
2013-06-15 20:20:00,76.1,68.0,29.82,SSW,209,3.5,3.5,76,0.00,CLR,CLR,0.00,WeatherDisplay:10.37,2013-06-16 01:20:00,
2013-06-15 20:25:00,75.9,68.2,29.82,South,175,1.2,0.0,77,0.00,CLR,CLR,0.00,WeatherDisplay:10.37,2013-06-16 01:25:00,
2013-06-15 20:30:00,75.8,68.1,29.82,SSW,212,1.2,1.2,77,0.00,CLR,CLR,0.00,WeatherDisplay:10.37,2013-06-16 01:30:00,
2013-06-15 20:35:00,75.5,68.2,29.82,SW,215,1.2,1.2,78,0.00,CLR,CLR,0.00,WeatherDisplay:10.37,2013-06-16 01:35:00,
2013-06-15 20:40:00,75.3,68.0,29.82,SSE,148,1.2,1.2,78,0.00,CLR,CLR,0.00,WeatherDisplay:10.37,2013-06-16 01:40:00,
2013-06-15 20:45:00,75.0,67.7,29.82,WSW,248,4.0,4.0,78,0.00,CLR,CLR,0.00,WeatherDisplay:10.37,2013-06-16 01:45:00,
2013-06-15 20:50:00,74.9,67.9,29.82,SW,215,1.2,0.0,79,0.00,CLR,CLR,0.00,WeatherDisplay:10.37,2013-06-16 01:50:00,
2013-06-15 20:55:00,74.7,67.8,29.82,South,185,2.3,2.3,79,0.00,CLR,CLR,0.00,WeatherDisplay:10.37,2013-06-16 01:55:00,
2013-06-15 21:00:00,74.6,67.7,29.82,NE,38,3.5,3.5,79,0.00,CLR,CLR,0.00,WeatherDisplay:10.37,2013-06-16 02:00:00,
2013-06-15 21:05:00,74.4,67.8,29.82,SW,229,1.2,1.2,80,0.00,CLR,CLR,0.00,WeatherDisplay:10.37,2013-06-16 02:05:00,
2013-06-15 21:10:00,74.1,67.5,29.82,SSE,163,0.0,0.0,80,0.00,CLR,CLR,0.00,WeatherDisplay:10.37,2013-06-16 02:10:00,
2013-06-15 21:15:00,73.9,67.7,29.82,SW,225,2.0,2.0,81,0.00,CLR,CLR,0.00,WeatherDisplay:10.37,2013-06-16 02:15:00,
2013-06-15 21:20:00,73.7,67.5,29.82,NNE,33,1.2,1.2,81,0.00,CLR,CLR,0.00,WeatherDisplay:10.37,2013-06-16 02:20:00,
2013-06-15 21:25:00,73.6,67.4,29.83,ENE,76,1.2,0.0,81,0.00,CLR,CLR,0.00,WeatherDisplay:10.37,2013-06-16 02:25:00,
2013-06-15 21:30:00,73.3,67.5,29.82,SSW,194,1.2,1.2,82,0.00,CLR,CLR,0.00,WeatherDisplay:10.37,2013-06-16 02:30:00,
2013-06-15 21:35:00,73.2,67.4,29.82,South,184,4.0,4.0,82,0.00,CLR,CLR,0.00,WeatherDisplay:10.37,2013-06-16 02:35:00,
2013-06-15 21:40:00,73.0,67.5,29.82,SW,229,0.0,0.0,83,0.00,CLR,CLR,0.00,WeatherDisplay:10.37,2013-06-16 02:40:00,
2013-06-15 21:45:00,72.9,67.4,29.83,SSW,203,2.3,2.3,83,0.00,CLR,CLR,0.00,WeatherDisplay:10.37,2013-06-16 02:45:00,
2013-06-15 21:50:00,72.7,67.2,29.83,SSW,213,4.6,4.6,83,0.00,CLR,CLR,0.00,WeatherDisplay:10.37,2013-06-16 02:50:00,
2013-06-15 21:55:00,72.6,67.5,29.83,SW,219,2.3,2.3,84,0.00,CLR,CLR,0.00,WeatherDisplay:10.37,2013-06-16 02:55:00,
2013-06-15 22:00:00,72.4,67.3,29.84,SW,219,0.0,0.0,84,0.00,CLR,CLR,0.00,WeatherDisplay:10.37,2013-06-16 03:00:00,
2013-06-15 22:05:00,72.2,67.1,29.84,NE,44,0.0,0.0,84,0.00,CLR,CLR,0.00,WeatherDisplay:10.37,2013-06-16 03:05:00,
2013-06-15 22:10:00,72.1,67.3,29.84,NE,47,0.0,0.0,85,0.00,CLR,CLR,0.00,WeatherDisplay:10.37,2013-06-16 03:10:00,
2013-06-15 22:15:00,71.9,67.1,29.85,South,172,1.2,1.2,85,0.00,CLR,CLR,0.00,WeatherDisplay:10.37,2013-06-16 03:15:00,
2013-06-15 22:20:00,71.8,67.0,29.85,East,98,1.2,1.2,85,0.00,CLR,CLR,0.00,WeatherDisplay:10.37,2013-06-16 03:20:00,
2013-06-15 22:25:00,71.7,66.9,29.85,South,184,1.2,1.2,85,0.00,CLR,CLR,0.00,WeatherDisplay:10.37,2013-06-16 03:25:00,
2013-06-15 22:30:00,71.6,67.2,29.86,South,177,2.0,2.0,86,0.00,CLR,CLR,0.00,WeatherDisplay:10.37,2013-06-16 03:30:00,
2013-06-15 22:35:00,71.4,66.7,29.85,SE,128,2.0,2.0,85,0.00,CLR,CLR,0.00,WeatherDisplay:10.37,2013-06-16 03:35:00,
2013-06-15 22:40:00,71.3,66.9,29.85,SW,215,1.2,1.2,86,0.00,CLR,CLR,0.00,WeatherDisplay:10.37,2013-06-16 03:40:00,
2013-06-15 22:45:00,71.2,66.8,29.85,SW,215,1.2,1.2,86,0.00,CLR,CLR,0.00,WeatherDisplay:10.37,2013-06-16 03:45:00,
2013-06-15 22:50:00,71.0,66.6,29.86,SW,215,0.0,0.0,86,0.00,CLR,CLR,0.00,WeatherDisplay:10.37,2013-06-16 03:50:00,
2013-06-15 22:55:00,70.9,66.5,29.85,SW,215,0.0,0.0,86,0.00,CLR,CLR,0.00,WeatherDisplay:10.37,2013-06-16 03:55:00,
2013-06-15 23:00:00,70.8,66.4,29.86,SW,215,0.0,0.0,86,0.00,CLR,CLR,0.00,WeatherDisplay:10.37,2013-06-16 04:00:00,
2013-06-15 23:01:00,70.8,66.4,29.86,SW,215,0.0,0.0,86,0.00,CLR,CLR,0.00,WeatherDisplay:10.37,2013-06-16 04:01:00,
2013-06-15 23:02:00,70.7,66.3,29.86,SW,215,0.0,0.0,86,0.00,CLR,CLR,0.00,WeatherDisplay:10.37,2013-06-16 04:02:00,
2013-06-15 23:03:00,70.7,66.3,29.85,SW,215,1.2,1.2,86,0.00,CLR,CLR,0.00,WeatherDisplay:10.37,2013-06-16 04:03:00,
2013-06-15 23:04:00,70.6,66.2,29.86,SW,215,1.2,0.0,86,0.00,CLR,CLR,0.00,WeatherDisplay:10.37,2013-06-16 04:04:00,
2013-06-15 23:09:00,70.5,66.1,29.86,SW,215,0.0,0.0,86,0.00,CLR,CLR,0.00,WeatherDisplay:10.37,2013-06-16 04:09:00,
2013-06-15 23:11:00,70.4,66.3,29.86,SW,215,0.0,0.0,87,0.00,CLR,CLR,0.00,WeatherDisplay:10.37,2013-06-16 04:11:00,
2013-06-15 23:16:00,70.3,66.2,29.87,SW,215,0.0,0.0,87,0.00,CLR,CLR,0.00,WeatherDisplay:10.37,2013-06-16 04:16:00,
2013-06-15 23:21:00,70.2,66.1,29.87,SW,215,0.0,0.0,87,0.00,CLR,CLR,0.00,WeatherDisplay:10.37,2013-06-16 04:21:00,
2013-06-15 23:27:00,70.0,66.0,29.87,SW,215,1.2,1.2,87,0.00,CLR,CLR,0.00,WeatherDisplay:10.37,2013-06-16 04:27:00,
2013-06-15 23:33:00,69.9,65.9,29.87,SW,215,0.0,0.0,87,0.00,CLR,CLR,0.00,WeatherDisplay:10.37,2013-06-16 04:33:00,
2013-06-15 23:38:00,69.8,65.8,29.87,SW,217,0.0,0.0,87,0.00,CLR,CLR,0.00,WeatherDisplay:10.37,2013-06-16 04:38:00,
2013-06-15 23:43:00,69.8,65.8,29.87,SSW,212,3.5,3.5,87,0.00,CLR,CLR,0.00,WeatherDisplay:10.37,2013-06-16 04:43:00,
2013-06-15 23:48:00,69.7,65.7,29.87,ENE,76,1.2,1.2,87,0.00,CLR,CLR,0.00,WeatherDisplay:10.37,2013-06-16 04:48:00,
2013-06-15 23:53:00,69.7,65.7,29.86,ENE,76,0.0,0.0,87,0.00,CLR,CLR,0.00,WeatherDisplay:10.37,2013-06-16 04:53:00,
2013-06-15 23:58:00,69.5,65.8,29.86,West,277,0.0,0.0,88,0.00,CLR,CLR,0.00,WeatherDisplay:10.37,2013-06-16 04:58:00,